Time;durP1;ratioP1;P1;durP2;ratioP2;P2;SDS_P1;SDS_P2;PMS_P1;PMS_P2;Temp;Humidity;BMP_temperature;BMP_pressure;BME280_temperature;BME280_humidity;BME280_pressure;Samples;Min_cycle;Max_cycle;Signal;HPM_P1;HPM_P2
2022/01/25 00:08:28;;;;;;;9.77;6.40;;;6.60;99.90;;;;;;5069037;28;20212;-83
2022/01/25 00:25:04;;;;;;;8.75;7.30;;;6.50;99.90;;;;;;5070371;28;20206;-82
2022/01/25 00:27:43;;;;;;;16.63;8.00;;;6.40;99.90;;;;;;5069976;28;20226;-82
2022/01/25 00:30:26;;;;;;;11.45;7.05;;;6.40;99.90;;;;;;5068765;28;20243;-86
2022/01/25 00:32:54;;;;;;;11.00;8.15;;;6.30;99.90;;;;;;5071787;28;20192;-82
2022/01/25 00:35:25;;;;;;;13.73;8.20;;;6.30;99.90;;;;;;5080262;28;20763;-84
2022/01/25 00:37:53;;;;;;;11.00;7.43;;;6.20;99.90;;;;;;5072369;28;20200;-83
2022/01/25 00:40:21;;;;;;;11.32;6.70;;;6.20;99.90;;;;;;5075420;28;20235;-82
2022/01/25 00:42:50;;;;;;;14.30;7.80;;;6.20;99.90;;;;;;5072347;28;20223;-82
2022/01/25 00:45:20;;;;;;;9.98;6.85;;;6.10;99.90;;;;;;5081690;28;20193;-84
2022/01/25 00:47:50;;;;;;;13.20;7.20;;;6.10;99.90;;;;;;5075100;28;20227;-86
2022/01/25 00:50:18;;;;;;;8.70;6.78;;;6.20;99.90;;;;;;5071313;28;20192;-84
2022/01/25 00:55:35;;;;;;;11.70;7.20;;;6.10;99.90;;;;;;5069278;28;20660;-82
2022/01/25 00:58:03;;;;;;;10.13;5.97;;;6.10;99.90;;;;;;5070933;28;20628;-82
2022/01/25 01:00:32;;;;;;;12.57;6.90;;;6.00;99.90;;;;;;5073657;28;20197;-82
2022/01/25 01:03:00;;;;;;;10.70;7.18;;;6.00;99.90;;;;;;5069660;28;20200;-82
2022/01/25 01:05:29;;;;;;;11.98;6.88;;;6.00;99.90;;;;;;5059342;28;20227;-82
2022/01/25 01:08:17;;;;;;;9.32;6.65;;;5.90;99.90;;;;;;5072909;28;20191;-82
2022/01/25 01:10:46;;;;;;;12.43;7.25;;;5.90;99.90;;;;;;5081069;28;20202;-82
2022/01/25 01:13:45;;;;;;;13.23;7.00;;;6.00;99.90;;;;;;5069666;28;20200;-82
2022/01/25 01:16:37;;;;;;;10.27;6.68;;;5.90;99.90;;;;;;5071186;28;20220;-84
2022/01/25 01:30:23;;;;;;;11.45;6.70;;;5.50;99.90;;;;;;5066105;28;20663;-84
2022/01/25 01:33:23;;;;;;;9.10;6.35;;;5.50;99.90;;;;;;5066194;28;20251;-82
2022/01/25 01:44:24;;;;;;;10.30;6.07;;;5.50;99.90;;;;;;5070536;28;20789;-81
2022/01/25 01:47:07;;;;;;;12.05;7.53;;;5.50;99.90;;;;;;5047045;28;20224;-82
2022/01/25 01:49:40;;;;;;;10.85;6.40;;;5.50;99.90;;;;;;5065537;28;20581;-82
2022/01/25 01:52:09;;;;;;;12.25;7.28;;;5.50;99.90;;;;;;5069255;28;20215;-82
2022/01/25 01:54:40;;;;;;;13.75;7.40;;;5.50;99.90;;;;;;5056582;28;20230;-82
2022/01/25 01:57:10;;;;;;;14.77;8.55;;;5.50;99.90;;;;;;5072607;28;20222;-82
2022/01/25 01:59:38;;;;;;;13.50;6.93;;;5.50;99.90;;;;;;5074778;28;20206;-83
2022/01/25 02:02:07;;;;;;;11.75;6.60;;;5.50;99.90;;;;;;5055591;28;20193;-82
2022/01/25 02:04:36;;;;;;;13.55;7.38;;;5.50;99.90;;;;;;5069937;28;20188;-81
2022/01/25 02:07:05;;;;;;;11.95;7.72;;;5.50;99.90;;;;;;5069157;28;20220;-82
2022/01/25 02:09:33;;;;;;;9.75;6.35;;;5.40;99.90;;;;;;5069702;28;20202;-83
2022/01/25 02:12:01;;;;;;;12.18;7.65;;;5.40;99.90;;;;;;5068007;28;20218;-81
2022/01/25 02:14:35;;;;;;;11.45;7.32;;;5.40;99.90;;;;;;5072737;28;20282;-83
2022/01/25 02:17:11;;;;;;;11.48;6.53;;;5.40;99.90;;;;;;5064818;28;20223;-83
2022/01/25 02:22:34;;;;;;;12.18;8.18;;;5.40;99.90;;;;;;5070707;28;20732;-83
2022/01/25 02:25:02;;;;;;;8.68;6.45;;;5.50;99.90;;;;;;5068411;28;20198;-82
2022/01/25 02:27:30;;;;;;;12.77;8.65;;;5.40;99.90;;;;;;5070842;28;20217;-82
2022/01/25 02:29:58;;;;;;;12.15;6.93;;;5.40;99.90;;;;;;5070986;28;20200;-84
2022/01/25 02:32:30;;;;;;;10.30;7.43;;;5.40;99.90;;;;;;5067078;28;20220;-84
2022/01/25 02:35:02;;;;;;;10.85;8.48;;;5.40;99.90;;;;;;5074873;28;20218;-82
2022/01/25 02:37:38;;;;;;;16.02;7.95;;;5.50;99.90;;;;;;5046777;28;20699;-81
2022/01/25 02:40:10;;;;;;;16.15;8.48;;;5.50;99.90;;;;;;5065259;28;20243;-82
2022/01/25 02:42:44;;;;;;;10.80;7.18;;;5.60;99.90;;;;;;5067174;28;20201;-79
2022/01/25 02:45:19;;;;;;;11.88;7.13;;;5.60;99.90;;;;;;5081117;28;20195;-79
2022/01/25 02:50:37;;;;;;;12.80;8.50;;;5.60;99.90;;;;;;5071862;28;20199;-81
2022/01/25 02:53:10;;;;;;;18.30;8.45;;;5.70;99.90;;;;;;5055065;28;20276;-82
2022/01/25 02:55:44;;;;;;;14.50;8.45;;;5.70;99.90;;;;;;5075562;28;20197;-82
2022/01/25 02:58:14;;;;;;;14.40;8.80;;;5.80;99.90;;;;;;5056409;28;20203;-82
2022/01/25 03:00:45;;;;;;;13.55;7.80;;;5.80;99.90;;;;;;5051763;28;20200;-79
2022/01/25 03:03:15;;;;;;;12.38;7.93;;;5.70;99.90;;;;;;5046044;28;20185;-81
2022/01/25 03:05:45;;;;;;;15.82;9.20;;;5.70;99.90;;;;;;5069973;28;20218;-80
2022/01/25 03:08:21;;;;;;;11.15;8.02;;;5.70;99.90;;;;;;5070396;28;20567;-84
2022/01/25 03:10:49;;;;;;;13.77;8.25;;;5.70;99.90;;;;;;5064001;28;20198;-80
2022/01/25 03:13:22;;;;;;;15.25;8.40;;;5.70;99.90;;;;;;5051274;28;20229;-83
2022/01/25 03:16:00;;;;;;;16.38;8.70;;;5.70;99.90;;;;;;5071640;28;20221;-80
2022/01/25 03:18:43;;;;;;;11.27;7.20;;;5.90;99.90;;;;;;5071816;28;20218;-80
2022/01/25 03:24:00;;;;;;;16.85;9.55;;;5.60;99.90;;;;;;5068005;28;20211;-85
2022/01/25 03:26:28;;;;;;;10.27;6.45;;;5.50;99.90;;;;;;5059713;28;20230;-82
2022/01/25 03:28:56;;;;;;;13.52;8.80;;;5.40;99.90;;;;;;5065011;28;20202;-81
2022/01/25 03:31:25;;;;;;;16.52;7.47;;;5.30;99.90;;;;;;5068583;28;20642;-81
2022/01/25 03:33:53;;;;;;;11.68;7.80;;;5.30;99.90;;;;;;5073596;28;20272;-85
2022/01/25 03:36:22;;;;;;;8.93;7.18;;;5.30;99.90;;;;;;5073411;28;20214;-82
2022/01/25 03:38:50;;;;;;;10.85;8.05;;;5.30;99.90;;;;;;5073269;28;20190;-81
2022/01/25 03:41:20;;;;;;;13.55;7.30;;;5.20;99.90;;;;;;5067682;28;20200;-81
2022/01/25 03:43:53;;;;;;;11.07;7.57;;;5.20;99.90;;;;;;5072043;28;20199;-82
2022/01/25 03:46:30;;;;;;;13.30;7.97;;;5.20;99.90;;;;;;5089011;28;20251;-83
2022/01/25 03:51:45;;;;;;;11.70;7.05;;;5.10;99.90;;;;;;5068967;28;20191;-83
2022/01/25 03:54:13;;;;;;;13.48;7.88;;;5.10;99.90;;;;;;5074276;28;20218;-82
2022/01/25 03:56:43;;;;;;;13.15;6.80;;;5.00;99.90;;;;;;5051916;28;20239;-81
2022/01/25 03:59:11;;;;;;;11.00;7.20;;;5.00;99.90;;;;;;5054186;28;20214;-80
2022/01/25 04:01:40;;;;;;;11.55;6.97;;;4.90;99.90;;;;;;5059457;28;20203;-80
2022/01/25 04:04:12;;;;;;;11.85;8.05;;;4.90;99.90;;;;;;5071381;28;20245;-81
2022/01/25 04:06:47;;;;;;;13.50;7.20;;;4.80;99.90;;;;;;5089181;28;20274;-80
2022/01/25 04:09:16;;;;;;;10.70;7.93;;;4.80;99.90;;;;;;5072735;28;20194;-80
2022/01/25 04:11:46;;;;;;;13.63;8.20;;;4.80;99.90;;;;;;5075298;28;20190;-80
2022/01/25 04:14:14;;;;;;;11.52;6.82;;;4.80;99.90;;;;;;5072058;28;20211;-81
2022/01/25 04:16:50;;;;;;;12.45;7.25;;;4.80;99.90;;;;;;5071828;28;20227;-83
2022/01/25 04:19:28;;;;;;;10.90;7.40;;;4.80;99.90;;;;;;5065276;28;20200;-82
2022/01/25 04:25:06;;;;;;;10.82;6.32;;;4.80;99.90;;;;;;5047716;28;20225;-83
2022/01/25 04:27:35;;;;;;;11.75;7.20;;;4.70;99.90;;;;;;5067569;28;20211;-84
2022/01/25 04:30:06;;;;;;;12.85;7.57;;;4.70;99.90;;;;;;5055630;28;20199;-85
2022/01/25 04:32:42;;;;;;;12.10;7.05;;;4.70;99.90;;;;;;5073939;28;20218;-84
2022/01/25 04:35:24;;;;;;;13.43;7.90;;;4.70;99.90;;;;;;5079500;28;20235;-81
2022/01/25 04:49:06;;;;;;;9.77;6.10;;;4.60;99.90;;;;;;5067265;28;20199;-82
2022/01/25 04:51:46;;;;;;;13.40;7.53;;;4.60;99.90;;;;;;5077120;28;20222;-80
2022/01/25 04:54:23;;;;;;;11.75;7.57;;;4.60;99.90;;;;;;5069044;28;20214;-81
2022/01/25 04:56:59;;;;;;;9.70;6.82;;;4.60;99.90;;;;;;5067207;28;20230;-82
2022/01/25 04:59:34;;;;;;;12.77;6.88;;;4.60;99.90;;;;;;5070927;28;20716;-81
2022/01/25 05:02:08;;;;;;;17.13;9.15;;;4.60;99.90;;;;;;5069522;28;20212;-83
2022/01/25 05:04:42;;;;;;;11.27;8.32;;;4.60;99.90;;;;;;5073222;28;20201;-81
2022/01/25 05:07:25;;;;;;;11.48;7.55;;;4.70;99.90;;;;;;5070125;28;20238;-81
2022/01/25 05:09:54;;;;;;;12.13;6.72;;;4.70;99.90;;;;;;5067887;28;20207;-82
2022/01/25 05:12:34;;;;;;;11.15;6.88;;;4.90;99.90;;;;;;5075299;28;20203;-83
2022/01/25 05:15:28;;;;;;;14.55;8.15;;;4.70;99.90;;;;;;5070851;28;20573;-83
2022/01/25 05:18:08;;;;;;;23.23;11.50;;;4.60;99.90;;;;;;5052792;28;20193;-82
2022/01/25 05:23:22;;;;;;;14.25;8.60;;;4.70;99.90;;;;;;5063997;28;20661;-79
2022/01/25 05:25:51;;;;;;;7.60;6.00;;;4.70;99.90;;;;;;5069606;28;20532;-82
2022/01/25 05:28:19;;;;;;;10.82;6.78;;;4.60;99.90;;;;;;5071475;28;20943;-81
2022/01/25 05:30:49;;;;;;;14.02;7.60;;;4.50;99.90;;;;;;5077907;28;20210;-82
2022/01/25 05:33:17;;;;;;;17.58;8.77;;;4.50;99.90;;;;;;5061241;28;20720;-82
2022/01/25 05:35:46;;;;;;;15.52;8.93;;;4.50;99.90;;;;;;5064613;28;20210;-80
2022/01/25 05:38:14;;;;;;;14.50;8.57;;;4.40;99.90;;;;;;5065621;28;20285;-84
2022/01/25 05:40:45;;;;;;;11.48;7.05;;;4.50;99.90;;;;;;5069254;28;20206;-84
2022/01/25 05:46:12;;;;;;;12.60;9.05;;;4.40;99.90;;;;;;5031102;28;20231;-82
2022/01/25 05:48:41;;;;;;;10.65;6.93;;;4.40;99.90;;;;;;5074067;28;20814;-83
2022/01/25 05:51:10;;;;;;;10.43;7.15;;;4.40;99.90;;;;;;5074184;28;20195;-81
2022/01/25 05:53:40;;;;;;;18.65;8.27;;;4.40;99.90;;;;;;5067979;28;20228;-83
2022/01/25 05:56:08;;;;;;;9.88;6.90;;;4.60;99.90;;;;;;5073400;28;20227;-82
2022/01/25 05:58:37;;;;;;;13.80;8.25;;;4.60;99.90;;;;;;5067660;28;20185;-84
2022/01/25 06:01:06;;;;;;;12.68;7.63;;;4.40;99.90;;;;;;5068097;28;20204;-86
2022/01/25 06:03:35;;;;;;;12.23;6.70;;;4.30;99.90;;;;;;5073621;28;20190;-83
2022/01/25 06:06:04;;;;;;;16.27;6.95;;;4.30;99.90;;;;;;5072440;28;20227;-82
2022/01/25 06:08:32;;;;;;;10.65;6.90;;;4.40;99.90;;;;;;5075673;28;20207;-83
2022/01/25 06:11:00;;;;;;;9.25;6.75;;;4.30;99.90;;;;;;5058404;28;20211;-82
2022/01/25 06:13:29;;;;;;;12.50;8.05;;;4.40;99.90;;;;;;5070889;28;20202;-85
2022/01/25 06:15:57;;;;;;;14.48;8.30;;;4.40;99.90;;;;;;5071342;28;20222;-84
2022/01/25 06:18:27;;;;;;;8.35;6.70;;;4.30;99.90;;;;;;5073364;28;20242;-83
2022/01/25 06:20:55;;;;;;;12.80;7.90;;;4.40;99.90;;;;;;5078639;28;20210;-82
2022/01/25 06:23:23;;;;;;;11.95;7.15;;;4.40;99.90;;;;;;5080715;28;20206;-81
2022/01/25 06:25:51;;;;;;;10.18;6.75;;;4.30;99.90;;;;;;5070682;28;20218;-83
2022/01/25 06:28:20;;;;;;;15.27;7.65;;;4.30;99.90;;;;;;5076071;28;20217;-81
2022/01/25 06:30:49;;;;;;;14.40;8.77;;;4.30;99.90;;;;;;5068516;28;20207;-81
2022/01/25 06:33:17;;;;;;;12.63;7.43;;;4.30;99.90;;;;;;5076337;28;20198;-81
2022/01/25 06:35:48;;;;;;;14.30;8.60;;;4.30;99.90;;;;;;5072837;28;20217;-81
2022/01/25 06:38:16;;;;;;;8.70;5.80;;;4.30;99.90;;;;;;5076009;28;20202;-83
2022/01/25 06:40:44;;;;;;;13.27;7.93;;;4.30;99.10;;;;;;5063024;28;20213;-82
2022/01/25 06:43:13;;;;;;;12.82;7.85;;;4.30;99.90;;;;;;5067636;28;20640;-83
2022/01/25 06:45:41;;;;;;;19.20;8.63;;;4.30;99.30;;;;;;5065946;28;20222;-83
2022/01/25 06:48:10;;;;;;;11.85;7.40;;;4.30;99.70;;;;;;5058375;28;20674;-83
2022/01/25 06:50:39;;;;;;;16.40;8.30;;;4.30;99.90;;;;;;5068021;28;20231;-82
2022/01/25 06:53:09;;;;;;;9.70;6.72;;;4.30;99.50;;;;;;5073236;28;20197;-82
2022/01/25 06:55:40;;;;;;;10.05;6.88;;;4.30;99.90;;;;;;5065723;28;20209;-82
2022/01/25 06:58:09;;;;;;;12.13;7.38;;;4.20;99.10;;;;;;5087005;28;20206;-83
2022/01/25 07:00:37;;;;;;;11.68;7.85;;;4.30;99.70;;;;;;5067385;28;20200;-83
2022/01/25 07:03:06;;;;;;;13.68;8.13;;;4.20;99.10;;;;;;5069984;28;20201;-82
2022/01/25 07:05:35;;;;;;;13.98;8.65;;;4.20;99.70;;;;;;5070779;28;20193;-83
2022/01/25 07:08:04;;;;;;;13.50;7.50;;;4.20;99.90;;;;;;5054540;28;20210;-83
2022/01/25 07:10:34;;;;;;;9.32;6.43;;;4.20;99.90;;;;;;5053572;28;20203;-83
2022/01/25 07:13:02;;;;;;;9.60;8.13;;;4.20;99.90;;;;;;5065925;28;20222;-81
2022/01/25 07:15:31;;;;;;;13.55;6.50;;;4.20;99.90;;;;;;5048763;28;20311;-82
2022/01/25 07:17:59;;;;;;;13.05;7.20;;;4.20;99.90;;;;;;5068572;28;20221;-83
2022/01/25 07:20:27;;;;;;;12.50;7.38;;;4.20;99.90;;;;;;5074667;28;20202;-84
2022/01/25 07:22:56;;;;;;;10.43;6.88;;;4.10;99.90;;;;;;5061742;28;20675;-85
2022/01/25 07:25:26;;;;;;;12.02;7.00;;;4.10;99.90;;;;;;5053214;28;20251;-83
2022/01/25 07:27:55;;;;;;;11.50;7.63;;;4.20;99.90;;;;;;5070831;28;20201;-81
2022/01/25 07:30:24;;;;;;;17.20;9.20;;;4.40;99.90;;;;;;5070144;28;20198;-83
2022/01/25 07:32:52;;;;;;;16.88;8.13;;;4.20;99.90;;;;;;5069467;28;20200;-85
2022/01/25 07:35:23;;;;;;;16.85;8.93;;;4.20;99.90;;;;;;5057599;28;20632;-83
2022/01/25 07:37:52;;;;;;;15.38;8.23;;;4.30;99.90;;;;;;5068032;28;20269;-81
2022/01/25 07:40:21;;;;;;;14.15;8.52;;;4.40;99.90;;;;;;5068249;28;20691;-81
2022/01/25 07:42:49;;;;;;;12.10;7.55;;;4.40;99.90;;;;;;5067424;28;20285;-82
2022/01/25 07:45:25;;;;;;;12.98;9.35;;;4.40;99.90;;;;;;5070526;28;20654;-82
2022/01/25 07:47:54;;;;;;;18.25;9.65;;;4.40;99.90;;;;;;5070599;28;20228;-84
2022/01/25 07:50:26;;;;;;;12.88;7.05;;;4.50;99.90;;;;;;5074891;28;20202;-83
2022/01/25 07:52:54;;;;;;;14.40;8.90;;;4.50;99.90;;;;;;5071981;28;20202;-84
2022/01/25 07:55:23;;;;;;;11.27;7.15;;;4.70;99.90;;;;;;5065928;28;20456;-85
2022/01/25 07:57:51;;;;;;;17.48;11.15;;;4.50;99.90;;;;;;5064601;28;20459;-82
2022/01/25 08:00:20;;;;;;;11.15;9.65;;;4.50;99.90;;;;;;5068830;28;20190;-82
2022/01/25 08:02:51;;;;;;;13.85;8.10;;;4.50;99.90;;;;;;5072602;28;20206;-83
2022/01/25 08:05:26;;;;;;;16.10;8.38;;;4.50;99.90;;;;;;5069596;28;20574;-83
2022/01/25 08:08:08;;;;;;;13.23;7.65;;;4.60;99.90;;;;;;5074992;28;20209;-82
2022/01/25 08:10:58;;;;;;;14.25;8.35;;;4.90;99.90;;;;;;5069368;28;20203;-81
2022/01/25 08:14:02;;;;;;;13.98;7.10;;;4.80;99.90;;;;;;5060190;28;20254;-81
2022/01/25 08:16:50;;;;;;;11.77;7.30;;;4.80;99.90;;;;;;5072309;28;20223;-81
2022/01/25 08:19:34;;;;;;;11.82;7.45;;;4.90;99.90;;;;;;5081915;28;20201;-79
2022/01/25 08:22:13;;;;;;;10.30;7.13;;;5.00;99.90;;;;;;5068801;28;20198;-80
2022/01/25 08:24:55;;;;;;;13.35;7.15;;;5.10;99.90;;;;;;5071874;28;20205;-81
2022/01/25 08:27:27;;;;;;;12.13;7.38;;;5.30;99.90;;;;;;5081294;28;21122;-83
2022/01/25 08:30:08;;;;;;;10.27;7.05;;;5.60;99.90;;;;;;5063257;28;20243;-81
2022/01/25 08:32:53;;;;;;;16.70;6.80;;;5.50;99.90;;;;;;5008054;28;20217;-82
2022/01/25 08:35:32;;;;;;;15.70;7.72;;;5.60;99.90;;;;;;5001463;28;20301;-82
2022/01/25 08:38:17;;;;;;;13.77;7.47;;;5.60;99.90;;;;;;5008126;28;20575;-81
2022/01/25 08:41:06;;;;;;;12.15;7.20;;;5.70;99.90;;;;;;5012570;28;20381;-82
2022/01/25 08:43:48;;;;;;;13.90;7.55;;;5.80;99.90;;;;;;5006509;28;20605;-81
2022/01/25 08:46:20;;;;;;;17.52;9.43;;;5.90;99.90;;;;;;5009006;28;20271;-82
2022/01/25 08:49:02;;;;;;;12.98;8.18;;;6.10;99.90;;;;;;4999056;28;20366;-84
2022/01/25 08:51:49;;;;;;;15.82;9.15;;;6.10;99.90;;;;;;4990173;28;20615;-83
2022/01/25 08:54:31;;;;;;;13.25;9.05;;;6.10;99.90;;;;;;4992948;28;20288;-81
2022/01/25 08:57:19;;;;;;;11.85;7.30;;;6.20;99.90;;;;;;4988989;28;20233;-83
2022/01/25 09:00:01;;;;;;;10.68;6.15;;;6.20;99.90;;;;;;4989836;28;20215;-81
2022/01/25 09:02:30;;;;;;;10.93;6.40;;;6.20;99.90;;;;;;5023083;28;20201;-82
2022/01/25 09:04:58;;;;;;;14.07;7.43;;;6.20;99.90;;;;;;5003971;28;20198;-81
2022/01/25 09:07:28;;;;;;;12.18;6.60;;;6.40;99.90;;;;;;5007366;28;20817;-82
2022/01/25 09:09:56;;;;;;;7.38;5.57;;;6.40;99.90;;;;;;5030715;28;20231;-82
2022/01/25 09:12:24;;;;;;;10.50;6.88;;;6.50;99.90;;;;;;5067293;28;20203;-82
2022/01/25 09:14:53;;;;;;;9.25;5.47;;;6.80;99.90;;;;;;5065633;28;20200;-83
2022/01/25 09:17:21;;;;;;;11.47;6.23;;;6.60;99.90;;;;;;5063997;28;20292;-82
2022/01/25 09:19:50;;;;;;;7.95;5.45;;;6.60;99.90;;;;;;5070805;28;20466;-83
2022/01/25 09:22:19;;;;;;;10.90;6.63;;;6.70;99.90;;;;;;5079589;28;20197;-85
2022/01/25 09:24:49;;;;;;;12.13;7.13;;;6.80;99.90;;;;;;5093972;28;20210;-86
2022/01/25 09:27:17;;;;;;;13.67;7.43;;;6.80;99.90;;;;;;5069771;28;20228;-83
2022/01/25 09:29:46;;;;;;;12.60;7.65;;;6.90;99.90;;;;;;5068687;28;20545;-82
2022/01/25 09:32:14;;;;;;;12.85;7.85;;;7.00;99.90;;;;;;5054453;28;20200;-82
2022/01/25 09:34:42;;;;;;;14.40;7.57;;;7.10;99.90;;;;;;5071309;28;20205;-82
2022/01/25 09:37:10;;;;;;;9.65;5.55;;;7.20;99.90;;;;;;5074636;28;20850;-82
2022/01/25 09:39:39;;;;;;;10.83;7.60;;;7.20;99.90;;;;;;5049377;28;20319;-83
2022/01/25 09:42:10;;;;;;;15.50;8.32;;;7.30;99.90;;;;;;5064973;28;20458;-83
2022/01/25 09:44:40;;;;;;;12.33;7.67;;;7.40;99.90;;;;;;5066143;28;20197;-86
2022/01/25 09:47:11;;;;;;;14.43;6.78;;;7.40;99.90;;;;;;5067181;28;20536;-83
2022/01/25 09:49:40;;;;;;;12.60;7.47;;;7.60;99.90;;;;;;5064782;28;20192;-82
2022/01/25 09:52:09;;;;;;;10.37;6.67;;;7.80;99.90;;;;;;5090692;28;20526;-84
2022/01/25 09:54:37;;;;;;;10.90;6.70;;;8.00;99.90;;;;;;5073764;28;20450;-82
2022/01/25 09:57:08;;;;;;;11.53;8.20;;;8.30;99.90;;;;;;5070750;28;20475;-83
2022/01/25 09:59:37;;;;;;;12.27;8.00;;;8.60;99.90;;;;;;5063250;28;20454;-85
2022/01/25 10:02:05;;;;;;;12.33;8.00;;;8.90;99.90;;;;;;5076601;28;20462;-83
2022/01/25 10:04:38;;;;;;;13.60;7.40;;;9.10;99.90;;;;;;5070510;28;20470;-84
2022/01/25 10:07:08;;;;;;;12.37;7.47;;;9.40;99.90;;;;;;5068359;28;20466;-86
2022/01/25 10:09:40;;;;;;;10.17;7.47;;;9.70;99.90;;;;;;5067167;28;20503;-84
2022/01/25 10:12:20;;;;;;;12.13;9.53;;;10.00;99.90;;;;;;5070542;28;20461;-84
2022/01/25 10:14:55;;;;;;;9.93;6.83;;;10.30;99.90;;;;;;5068045;28;20468;-84
2022/01/25 10:17:33;;;;;;;8.03;6.23;;;10.60;99.90;;;;;;5066924;28;20488;-83
2022/01/25 10:20:01;;;;;;;10.13;6.27;;;10.70;99.90;;;;;;5066759;28;20463;-84
2022/01/25 10:22:42;;;;;;;9.50;5.83;;;11.00;99.90;;;;;;5100257;28;20484;-86
2022/01/25 10:25:10;;;;;;;9.13;6.50;;;11.40;99.90;;;;;;5066945;28;20450;-84
2022/01/25 10:28:03;;;;;;;9.00;6.07;;;11.60;99.90;;;;;;5067816;28;20498;-84
2022/01/25 10:30:36;;;;;;;9.77;6.17;;;11.90;99.90;;;;;;5047018;28;20482;-85
2022/01/25 10:33:17;;;;;;;12.77;6.57;;;12.20;99.90;;;;;;5064086;28;20457;-85
2022/01/25 10:35:46;;;;;;;9.37;5.90;;;12.30;99.90;;;;;;5064679;28;20448;-84
2022/01/25 10:38:22;;;;;;;9.80;7.23;;;12.40;99.90;;;;;;5065245;28;20454;-86
2022/01/25 10:40:56;;;;;;;12.03;6.80;;;12.50;99.90;;;;;;5063346;28;20496;-84
2022/01/25 10:43:28;;;;;;;8.70;6.50;;;12.70;99.90;;;;;;5072139;28;20449;-84
2022/01/25 10:46:16;;;;;;;10.67;7.00;;;12.70;99.90;;;;;;5057433;28;20475;-82
2022/01/25 10:48:48;;;;;;;8.43;5.33;;;12.70;99.90;;;;;;5064149;28;20488;-85
2022/01/25 10:51:20;;;;;;;8.37;6.10;;;12.80;99.90;;;;;;5067875;28;20450;-82
2022/01/25 10:53:59;;;;;;;9.27;5.87;;;13.00;99.90;;;;;;5061268;28;20552;-83
2022/01/25 10:56:33;;;;;;;10.23;7.80;;;12.90;99.90;;;;;;5079854;28;21109;-83
2022/01/25 10:59:05;;;;;;;9.07;7.20;;;13.20;99.90;;;;;;5063167;28;20455;-84
2022/01/25 11:01:35;;;;;;;10.20;8.00;;;13.50;99.90;;;;;;5061417;28;20461;-83
2022/01/25 11:04:09;;;;;;;10.93;7.03;;;13.50;99.90;;;;;;5062215;28;20457;-84
2022/01/25 11:06:39;;;;;;;12.40;6.30;;;13.60;99.90;;;;;;5066082;28;20466;-83
2022/01/25 11:09:10;;;;;;;8.50;6.40;;;13.70;99.90;;;;;;5066331;28;20474;-83
2022/01/25 11:11:45;;;;;;;10.33;7.00;;;13.80;99.90;;;;;;5070843;28;20529;-82
2022/01/25 11:17:01;;;;;;;7.73;6.10;;;13.70;99.90;;;;;;5063323;28;20507;-82
2022/01/25 11:19:30;;;;;;;12.63;6.47;;;14.00;99.90;;;;;;5044914;28;20459;-82
2022/01/25 11:21:59;;;;;;;8.37;6.80;;;14.10;99.90;;;;;;5061873;28;20599;-83
2022/01/25 11:24:31;;;;;;;10.03;6.80;;;14.50;99.90;;;;;;5063246;28;20553;-82
2022/01/25 11:27:03;;;;;;;10.10;7.00;;;14.70;99.90;;;;;;5070591;28;20717;-83
2022/01/25 11:29:36;;;;;;;9.40;6.23;;;14.80;99.90;;;;;;5069147;28;20497;-82
2022/01/25 11:32:09;;;;;;;10.00;6.50;;;15.00;99.90;;;;;;5068394;28;20947;-82
2022/01/25 11:34:40;;;;;;;7.70;5.87;;;15.20;99.90;;;;;;5082835;28;20986;-83
2022/01/25 11:37:09;;;;;;;7.87;5.80;;;15.20;99.90;;;;;;5062304;28;20480;-83
2022/01/25 11:39:42;;;;;;;10.47;6.90;;;15.10;99.90;;;;;;5057774;28;20460;-83
2022/01/25 11:42:12;;;;;;;6.87;5.80;;;15.20;99.90;;;;;;5055076;28;20449;-81
2022/01/25 11:44:53;;;;;;;6.87;5.90;;;15.00;99.90;;;;;;5059453;28;20448;-80
2022/01/25 11:47:22;;;;;;;7.10;5.30;;;14.70;99.90;;;;;;5063615;28;20470;-80
2022/01/25 11:49:56;;;;;;;7.90;5.73;;;14.60;99.90;;;;;;5059821;28;20491;-82
2022/01/25 11:52:27;;;;;;;7.20;4.63;;;14.60;99.90;;;;;;5064912;28;20439;-81
2022/01/25 11:55:20;;;;;;;7.27;4.80;;;14.40;99.90;;;;;;5047971;28;20527;-83
2022/01/25 11:57:54;;;;;;;10.90;6.53;;;14.20;98.60;;;;;;5077323;28;20638;-82
2022/01/25 12:00:35;;;;;;;7.93;5.77;;;14.00;98.80;;;;;;5040612;28;20467;-84
2022/01/25 12:03:19;;;;;;;8.20;5.83;;;14.00;98.70;;;;;;5061904;28;20919;-83
2022/01/25 12:06:03;;;;;;;7.07;5.50;;;13.90;98.30;;;;;;5064521;28;20481;-83
2022/01/25 12:08:41;;;;;;;9.57;5.40;;;13.90;97.90;;;;;;5053589;28;20457;-83
2022/01/25 12:11:31;;;;;;;10.00;5.97;;;13.80;98.20;;;;;;5072412;28;20472;-80
2022/01/25 12:14:28;;;;;;;10.50;6.53;;;13.80;98.60;;;;;;5058071;28;20951;-81
2022/01/25 12:17:11;;;;;;;9.75;6.60;;;13.70;97.60;;;;;;5047218;28;20445;-84
2022/01/25 12:19:44;;;;;;;9.13;5.70;;;13.60;97.10;;;;;;5055706;28;20199;-83
2022/01/25 12:22:34;;;;;;;6.77;5.60;;;13.50;96.00;;;;;;5064897;28;20460;-83
2022/01/25 12:25:11;;;;;;;9.70;6.17;;;13.50;93.80;;;;;;5060739;28;20453;-83
2022/01/25 12:27:46;;;;;;;9.30;6.07;;;13.50;94.10;;;;;;5054863;28;20569;-84
2022/01/25 12:30:19;;;;;;;7.33;6.17;;;13.40;95.00;;;;;;5046201;28;20452;-83
2022/01/25 12:32:58;;;;;;;10.33;5.97;;;13.50;94.20;;;;;;5065729;28;20456;-84
2022/01/25 12:35:40;;;;;;;7.60;5.27;;;13.50;95.10;;;;;;5067065;28;20460;-82
2022/01/25 12:38:11;;;;;;;9.73;6.00;;;13.50;95.20;;;;;;5063284;28;20487;-83
2022/01/25 12:40:52;;;;;;;9.13;5.90;;;13.50;96.20;;;;;;5071279;28;20472;-83
2022/01/25 12:43:23;;;;;;;7.50;5.67;;;13.50;95.20;;;;;;5068934;28;20453;-83
2022/01/25 12:45:55;;;;;;;7.80;4.97;;;13.50;95.50;;;;;;5063977;28;20478;-83
2022/01/25 12:48:27;;;;;;;7.40;5.27;;;13.50;94.70;;;;;;5050664;28;20453;-84
2022/01/25 12:50:59;;;;;;;6.37;5.00;;;13.50;94.60;;;;;;5066191;28;20529;-83
2022/01/25 12:53:29;;;;;;;8.93;6.00;;;13.50;94.30;;;;;;5058650;28;20947;-82
2022/01/25 12:56:01;;;;;;;7.40;4.93;;;13.40;92.50;;;;;;5072773;28;20483;-83
2022/01/25 12:58:31;;;;;;;11.00;6.20;;;13.40;93.70;;;;;;5054511;28;20556;-83
2022/01/25 13:01:03;;;;;;;8.53;5.90;;;13.50;94.90;;;;;;5070110;28;20452;-82
2022/01/25 13:03:34;;;;;;;9.60;6.03;;;13.50;96.00;;;;;;5045324;28;20456;-83
2022/01/25 13:06:09;;;;;;;15.33;11.07;;;13.60;96.50;;;;;;5069290;28;20824;-82
2022/01/25 13:08:47;;;;;;;16.33;10.30;;;13.60;98.10;;;;;;5082580;28;20453;-83
2022/01/25 13:11:38;;;;;;;15.10;10.00;;;13.60;97.60;;;;;;5066089;28;20466;-82
2022/01/25 13:16:56;;;;;;;18.50;12.60;;;13.50;98.80;;;;;;5070193;28;20477;-85
2022/01/25 13:19:28;;;;;;;19.27;11.60;;;13.50;98.20;;;;;;5086920;28;20452;-83
2022/01/25 13:22:00;;;;;;;14.30;11.30;;;13.50;98.10;;;;;;5086681;28;20446;-81
2022/01/25 13:24:41;;;;;;;17.13;11.87;;;13.50;98.30;;;;;;5053682;28;20511;-82
2022/01/25 13:27:13;;;;;;;19.23;12.50;;;13.50;99.50;;;;;;5051344;28;20817;-81
2022/01/25 13:32:32;;;;;;;18.83;13.20;;;13.60;99.90;;;;;;5066819;28;20458;-82
2022/01/25 13:35:02;;;;;;;19.93;12.43;;;13.50;99.00;;;;;;5071547;28;20513;-81
2022/01/25 13:37:31;;;;;;;18.87;12.77;;;13.50;99.90;;;;;;5069406;28;20839;-81
2022/01/25 13:40:03;;;;;;;17.90;12.10;;;13.50;99.30;;;;;;5070371;28;20465;-81
2022/01/25 13:42:40;;;;;;;20.03;12.50;;;13.50;98.90;;;;;;5071748;28;20492;-83
2022/01/25 13:48:04;;;;;;;15.20;10.00;;;13.40;98.20;;;;;;5063284;28;20475;-82
2022/01/25 13:50:35;;;;;;;14.93;9.37;;;13.50;97.70;;;;;;5066172;28;20465;-82
2022/01/25 13:53:05;;;;;;;15.27;9.67;;;13.40;98.00;;;;;;5068699;28;20551;-82
2022/01/25 13:55:33;;;;;;;11.47;9.33;;;13.40;98.00;;;;;;5079889;28;20465;-83
2022/01/25 13:58:02;;;;;;;15.20;10.30;;;13.30;98.00;;;;;;5066160;28;21926;-82
2022/01/25 14:00:31;;;;;;;15.50;9.70;;;13.30;97.10;;;;;;5046928;28;20513;-80
2022/01/25 14:03:06;;;;;;;11.23;8.70;;;13.20;95.70;;;;;;5072791;28;20448;-82
2022/01/25 14:05:37;;;;;;;12.43;9.20;;;13.10;96.30;;;;;;5049429;28;20547;-82
2022/01/25 14:08:06;;;;;;;8.57;6.70;;;13.00;94.50;;;;;;5078949;28;20537;-82
2022/01/25 14:10:34;;;;;;;11.53;8.03;;;13.00;96.00;;;;;;5076757;28;20515;-82
2022/01/25 14:21:42;;;;;;;11.83;7.90;;;13.10;97.90;;;;;;5060726;28;20528;-82
2022/01/25 14:24:11;;;;;;;9.43;8.33;;;13.10;97.20;;;;;;5066810;28;20464;-82
2022/01/25 14:26:41;;;;;;;11.37;7.17;;;13.10;97.70;;;;;;5055784;28;20492;-83
2022/01/25 14:29:17;;;;;;;12.10;8.03;;;13.10;98.10;;;;;;5068867;28;20442;-83
2022/01/25 14:31:46;;;;;;;10.43;7.47;;;13.10;97.30;;;;;;5066033;28;20456;-82
2022/01/25 14:34:20;;;;;;;11.13;7.73;;;13.00;97.60;;;;;;5065905;28;20470;-83
2022/01/25 14:36:52;;;;;;;13.73;8.57;;;13.10;97.60;;;;;;5058581;28;20483;-83
2022/01/25 14:39:20;;;;;;;8.30;7.00;;;13.00;97.80;;;;;;5065659;28;20492;-82
2022/01/25 14:41:49;;;;;;;10.57;6.70;;;13.00;97.70;;;;;;5055250;28;21206;-82
2022/01/25 14:44:23;;;;;;;10.70;7.63;;;12.90;97.50;;;;;;5041081;28;20451;-82
2022/01/25 14:46:53;;;;;;;10.00;7.20;;;12.90;97.90;;;;;;5054972;28;20507;-79
2022/01/25 14:49:27;;;;;;;12.73;8.40;;;12.90;98.00;;;;;;5048771;28;20464;-79